Time;durP1;ratioP1;P1;durP2;ratioP2;P2;SDS_P1;SDS_P2;PMS_P1;PMS_P2;Temp;Humidity;BMP_temperature;BMP_pressure;BME280_temperature;BME280_humidity;BME280_pressure;Samples;Min_cycle;Max_cycle;Signal;HPM_P1;HPM_P2
2021/01/09 00:01:17;;;;;;;19.70;11.93;;;;;;;2.12;99.40;100616.73;640054;222;24813;-76
2021/01/09 00:03:45;;;;;;;20.30;11.43;;;;;;;1.91;100.00;100610.16;636046;221;24805;-76
2021/01/09 00:06:13;;;;;;;19.63;12.43;;;;;;;2.13;99.64;100608.12;641225;223;24804;-76
2021/01/09 00:08:41;;;;;;;24.35;15.80;;;;;;;2.70;97.62;100603.77;620914;229;33080;-77
2021/01/09 00:11:08;;;;;;;25.93;15.27;;;;;;;2.36;98.14;100603.85;639848;223;23691;-76
2021/01/09 00:13:36;;;;;;;24.50;13.30;;;;;;;2.27;98.43;100614.64;620026;230;24819;-75
2021/01/09 00:16:07;;;;;;;20.37;12.47;;;;;;;2.07;99.06;100614.39;621769;224;24876;-76
2021/01/09 00:18:35;;;;;;;19.90;12.03;;;;;;;2.04;99.54;100617.58;635532;223;24794;-76
2021/01/09 00:21:03;;;;;;;21.73;13.17;;;;;;;2.05;99.51;100614.94;623273;230;24872;-76
2021/01/09 00:23:31;;;;;;;19.40;11.57;;;;;;;2.04;99.73;100616.30;640470;223;24803;-76
2021/01/09 00:25:59;;;;;;;22.77;12.63;;;;;;;1.95;100.00;100617.59;638195;221;24811;-76
2021/01/09 00:28:27;;;;;;;22.40;13.60;;;;;;;2.19;99.93;100618.05;628936;225;24849;-76
2021/01/09 00:30:55;;;;;;;20.10;12.87;;;;;;;2.12;99.74;100619.30;628850;225;24824;-76
2021/01/09 00:33:23;;;;;;;19.17;11.70;;;;;;;1.97;100.00;100622.65;633839;224;24814;-76
2021/01/09 00:35:53;;;;;;;19.73;13.40;;;;;;;2.09;100.00;100619.44;640153;221;24845;-74
2021/01/09 00:38:18;;;;;;;19.43;11.87;;;;;;;2.12;99.78;100624.89;624948;230;26139;-75
2021/01/09 00:40:46;;;;;;;25.52;16.62;;;;;;;2.52;98.61;100613.28;634914;224;43998;-76
2021/01/09 00:43:14;;;;;;;21.30;13.60;;;;;;;2.25;98.91;100616.89;638107;224;25837;-76
2021/01/09 00:45:42;;;;;;;21.23;13.47;;;;;;;2.22;99.08;100615.31;623115;226;24865;-76
2021/01/09 00:48:10;;;;;;;20.13;13.37;;;;;;;2.20;99.39;100622.73;624871;230;24897;-74
2021/01/09 00:50:38;;;;;;;23.97;13.97;;;;;;;2.24;99.05;100618.62;638345;224;24805;-75
2021/01/09 00:53:06;;;;;;;20.27;11.50;;;;;;;2.06;99.46;100615.30;619972;229;27093;-75
2021/01/09 00:55:34;;;;;;;21.07;12.70;;;;;;;2.19;99.30;100618.51;625184;225;24793;-76
2021/01/09 00:58:02;;;;;;;22.00;13.60;;;;;;;2.17;99.17;100621.16;624844;228;28089;-75
2021/01/09 01:00:30;;;;;;;19.47;12.37;;;;;;;2.21;99.63;100623.09;625610;229;24839;-76
2021/01/09 01:02:58;;;;;;;20.23;13.30;;;;;;;2.34;98.75;100626.21;629363;228;24846;-76
2021/01/09 01:05:25;;;;;;;21.70;12.77;;;;;;;2.12;99.51;100630.02;627361;225;24904;-76
2021/01/09 01:07:53;;;;;;;20.10;12.73;;;;;;;2.23;99.24;100628.97;624405;229;24809;-75
2021/01/09 01:10:21;;;;;;;21.00;13.13;;;;;;;2.13;99.75;100623.52;624684;228;24821;-76
2021/01/09 01:12:49;;;;;;;21.73;12.90;;;;;;;2.25;98.96;100624.58;635766;223;24908;-75
2021/01/09 01:15:17;;;;;;;21.73;13.13;;;;;;;2.27;99.03;100624.90;618817;228;24891;-75
2021/01/09 01:17:48;;;;;;;22.53;12.90;;;;;;;2.31;98.85;100622.98;622443;229;25856;-77
2021/01/09 01:20:16;;;;;;;23.27;13.43;;;;;;;2.34;99.07;100631.80;625872;228;27977;-76
2021/01/09 01:22:46;;;;;;;20.43;13.00;;;;;;;2.34;98.63;100631.34;625029;227;24920;-75
2021/01/09 01:25:14;;;;;;;24.20;14.10;;;;;;;2.24;98.42;100630.63;626777;224;24834;-76
2021/01/09 01:27:42;;;;;;;23.90;13.93;;;;;;;2.30;98.51;100634.16;625602;227;24832;-77
2021/01/09 01:30:10;;;;;;;18.70;12.20;;;;;;;2.32;98.32;100634.91;640775;223;24802;-75
2021/01/09 01:32:38;;;;;;;26.27;17.30;;;;;;;2.54;96.52;100635.42;633178;224;32761;-77
2021/01/09 01:35:08;;;;;;;24.13;14.67;;;;;;;2.21;98.19;100640.60;639754;221;23670;-75
2021/01/09 01:37:37;;;;;;;23.03;13.60;;;;;;;2.11;99.11;100642.45;640814;223;24835;-76
2021/01/09 01:40:06;;;;;;;21.93;13.53;;;;;;;2.11;99.06;100641.98;641039;224;24812;-76
2021/01/09 01:42:34;;;;;;;19.63;13.03;;;;;;;2.14;99.34;100646.98;639147;224;24928;-75
2021/01/09 01:45:02;;;;;;;24.25;16.20;;;;;;;2.63;98.16;100643.05;634486;221;32784;-75
2021/01/09 01:47:30;;;;;;;23.40;14.10;;;;;;;2.23;98.34;100647.76;624720;229;23750;-75
2021/01/09 01:49:58;;;;;;;24.60;13.57;;;;;;;2.22;98.59;100650.41;640563;224;24816;-75
2021/01/09 01:52:26;;;;;;;21.97;13.63;;;;;;;2.18;98.97;100654.88;637336;225;24781;-75
2021/01/09 01:54:54;;;;;;;21.77;13.60;;;;;;;2.23;98.88;100655.91;625556;225;24811;-75
2021/01/09 01:57:22;;;;;;;22.00;12.20;;;;;;;2.14;98.91;100658.98;639477;224;26906;-76
2021/01/09 01:59:49;;;;;;;22.30;13.70;;;;;;;2.29;98.88;100654.33;627007;229;24812;-76
2021/01/09 02:02:17;;;;;;;21.33;13.30;;;;;;;2.29;98.60;100660.28;639194;224;24865;-75
2021/01/09 02:04:48;;;;;;;24.17;13.30;;;;;;;2.34;98.66;100658.75;625250;225;27075;-76
2021/01/09 02:07:16;;;;;;;24.60;14.73;;;;;;;2.27;98.55;100663.84;624583;229;24813;-75
2021/01/09 02:09:44;;;;;;;19.30;13.03;;;;;;;2.35;98.43;100659.12;621151;229;24864;-75
2021/01/09 02:12:13;;;;;;;23.50;13.00;;;;;;;2.27;98.62;100663.39;636859;224;24822;-76
2021/01/09 02:14:41;;;;;;;18.83;12.43;;;;;;;2.22;98.20;100665.34;624980;226;24824;-75
2021/01/09 02:17:09;;;;;;;22.30;13.60;;;;;;;2.19;98.54;100664.23;626530;228;24917;-75
2021/01/09 02:19:38;;;;;;;21.13;13.30;;;;;;;2.15;99.19;100663.20;624912;229;24830;-74
2021/01/09 02:22:06;;;;;;;19.23;12.13;;;;;;;2.11;98.82;100660.41;625347;228;24804;-76
2021/01/09 02:24:34;;;;;;;19.90;12.80;;;;;;;1.90;99.68;100669.59;625182;225;24837;-75
2021/01/09 02:27:03;;;;;;;20.40;12.33;;;;;;;1.84;99.75;100671.20;626578;228;24857;-75
2021/01/09 02:29:31;;;;;;;20.63;11.97;;;;;;;1.78;99.66;100670.22;634382;224;26998;-76
2021/01/09 02:32:00;;;;;;;17.13;10.97;;;;;;;1.93;99.89;100670.72;640338;224;24854;-75
2021/01/09 02:34:28;;;;;;;20.73;12.13;;;;;;;1.99;99.73;100669.13;626789;224;24839;-75
2021/01/09 02:36:56;;;;;;;18.60;11.30;;;;;;;1.98;99.64;100670.05;626302;228;24823;-75
2021/01/09 02:39:25;;;;;;;19.93;11.73;;;;;;;1.85;99.70;100668.19;626561;227;25904;-76
2021/01/09 02:41:52;;;;;;;20.80;12.10;;;;;;;1.87;99.35;100668.48;624784;229;24915;-76
2021/01/09 02:44:20;;;;;;;16.13;10.83;;;;;;;1.63;99.41;100665.86;627104;223;24929;-76
2021/01/09 02:46:48;;;;;;;22.48;14.90;;;;;;;2.06;99.60;100658.09;619616;229;32797;-75
2021/01/09 02:49:16;;;;;;;20.13;13.40;;;;;;;1.57;100.00;100677.27;625710;229;23742;-76
2021/01/09 02:51:44;;;;;;;19.57;12.70;;;;;;;1.78;100.00;100673.61;624599;229;24819;-75
2021/01/09 02:54:12;;;;;;;20.70;12.60;;;;;;;1.77;100.00;100672.41;626172;225;24791;-75
2021/01/09 02:56:40;;;;;;;22.83;13.10;;;;;;;1.42;100.00;100680.14;638559;224;24874;-76
2021/01/09 02:59:07;;;;;;;20.43;13.23;;;;;;;1.45;100.00;100685.56;637524;224;24800;-75
2021/01/09 03:01:35;;;;;;;25.00;12.80;;;;;;;1.57;100.00;100678.55;626044;229;24817;-75
2021/01/09 03:04:03;;;;;;;19.03;12.73;;;;;;;1.51;100.00;100679.29;627046;226;24859;-75
2021/01/09 03:06:31;;;;;;;21.17;12.53;;;;;;;1.52;100.00;100676.64;639719;224;24855;-75
2021/01/09 03:08:59;;;;;;;20.80;12.27;;;;;;;1.63;100.00;100682.08;639893;224;24805;-76
2021/01/09 03:11:28;;;;;;;22.50;13.20;;;;;;;1.73;100.00;100678.16;624595;229;24813;-76
2021/01/09 03:13:55;;;;;;;20.53;13.00;;;;;;;1.74;100.00;100678.52;625390;225;24797;-76
2021/01/09 03:16:23;;;;;;;20.40;13.00;;;;;;;1.78;100.00;100678.73;621952;230;24876;-76
2021/01/09 03:18:51;;;;;;;19.23;13.13;;;;;;;1.76;100.00;100676.70;627806;226;24853;-76
2021/01/09 03:21:19;;;;;;;20.20;12.47;;;;;;;1.85;100.00;100682.29;625999;225;24876;-76
2021/01/09 03:23:47;;;;;;;20.27;13.73;;;;;;;1.85;100.00;100679.73;628982;225;24935;-76
2021/01/09 03:26:15;;;;;;;20.57;13.60;;;;;;;1.88;100.00;100684.23;627622;225;24866;-75
2021/01/09 03:28:43;;;;;;;24.40;12.70;;;;;;;1.75;100.00;100680.18;620873;229;24823;-73
2021/01/09 03:31:10;;;;;;;21.80;12.30;;;;;;;1.72;100.00;100668.80;638713;225;24799;-74
2021/01/09 03:33:38;;;;;;;20.50;11.57;;;;;;;1.67;100.00;100669.47;637935;225;24830;-76
2021/01/09 03:36:07;;;;;;;19.20;12.20;;;;;;;1.65;100.00;100682.82;621233;225;24917;-75
2021/01/09 03:38:35;;;;;;;20.47;11.43;;;;;;;1.64;100.00;100677.77;631291;225;24843;-75
2021/01/09 03:41:03;;;;;;;17.10;11.17;;;;;;;1.41;100.00;100682.78;632040;225;24907;-75
2021/01/09 03:43:31;;;;;;;23.35;15.28;;;;;;;2.00;99.32;100680.22;622815;225;32959;-76
2021/01/09 03:45:59;;;;;;;19.00;13.50;;;;;;;1.45;99.05;100677.41;626444;225;23708;-75
2021/01/09 03:48:27;;;;;;;20.10;11.47;;;;;;;1.18;99.96;100684.71;633310;224;24923;-74
2021/01/09 03:50:55;;;;;;;18.87;12.40;;;;;;;1.18;100.00;100691.11;639523;222;24803;-76
2021/01/09 03:53:23;;;;;;;20.43;12.33;;;;;;;1.10;100.00;100691.09;639439;224;24819;-76
2021/01/09 03:55:51;;;;;;;21.20;13.13;;;;;;;1.29;100.00;100691.89;639268;220;24845;-75
2021/01/09 03:58:19;;;;;;;20.37;12.33;;;;;;;1.14;100.00;100692.62;641227;224;25152;-76
2021/01/09 04:00:47;;;;;;;24.30;12.50;;;;;;;1.14;100.00;100693.45;639071;223;26990;-76
2021/01/09 04:03:15;;;;;;;21.90;13.60;;;;;;;1.13;100.00;100691.80;638356;223;24798;-76
2021/01/09 04:05:42;;;;;;;21.60;12.80;;;;;;;1.12;100.00;100696.52;640612;221;26934;-74
2021/01/09 04:08:10;;;;;;;18.70;11.70;;;;;;;1.10;100.00;100695.77;623702;230;24888;-75
2021/01/09 04:10:38;;;;;;;26.55;16.73;;;;;;;1.57;100.00;100693.09;619124;229;33112;-75
2021/01/09 04:13:06;;;;;;;21.60;13.63;;;;;;;1.10;100.00;100684.69;624345;229;23693;-75
2021/01/09 04:15:34;;;;;;;19.50;11.47;;;;;;;0.86;100.00;100693.93;623882;225;24898;-75
2021/01/09 04:18:02;;;;;;;17.90;12.63;;;;;;;0.80;100.00;100701.05;638076;224;24841;-74
2021/01/09 04:20:30;;;;;;;21.13;12.13;;;;;;;0.84;100.00;100694.87;625148;229;25365;-76
2021/01/09 04:22:58;;;;;;;17.83;12.03;;;;;;;0.83;100.00;100703.45;627914;227;24981;-76
2021/01/09 04:25:26;;;;;;;16.23;11.10;;;;;;;0.52;100.00;100704.03;625101;226;24848;-75
2021/01/09 04:27:54;;;;;;;19.50;12.30;;;;;;;0.47;100.00;100705.98;625256;228;26988;-75
2021/01/09 04:30:22;;;;;;;16.67;11.43;;;;;;;0.51;100.00;100703.20;625181;228;24811;-75
2021/01/09 04:32:50;;;;;;;17.47;11.73;;;;;;;0.29;100.00;100706.36;626964;228;24852;-76
2021/01/09 04:35:18;;;;;;;19.27;12.03;;;;;;;0.35;100.00;100708.63;640724;221;24807;-76
2021/01/09 04:37:46;;;;;;;17.70;11.50;;;;;;;0.41;100.00;100705.79;638467;224;24832;-75
2021/01/09 04:40:14;;;;;;;17.50;11.10;;;;;;;0.29;100.00;100708.92;624972;229;24815;-76
2021/01/09 04:42:42;;;;;;;19.93;11.77;;;;;;;0.26;100.00;100709.86;640119;223;29387;-76
2021/01/09 04:45:12;;;;;;;18.30;11.77;;;;;;;0.19;100.00;100715.33;638883;221;24901;-75
2021/01/09 04:47:40;;;;;;;18.20;11.40;;;;;;;0.23;100.00;100717.67;632152;224;30513;-76
2021/01/09 04:50:09;;;;;;;21.93;12.47;;;;;;;0.23;100.00;100716.39;628409;225;25068;-75
2021/01/09 04:52:37;;;;;;;24.40;15.50;;;;;;;0.83;100.00;100720.09;616755;229;33239;-74
2021/01/09 04:55:06;;;;;;;20.57;13.13;;;;;;;0.57;100.00;100722.14;641252;220;23672;-76
2021/01/09 04:57:34;;;;;;;23.07;13.60;;;;;;;0.50;100.00;100716.08;639420;223;24809;-76
2021/01/09 05:00:02;;;;;;;23.63;14.10;;;;;;;0.57;100.00;100714.91;639622;224;24786;-75
2021/01/09 05:02:30;;;;;;;20.67;12.83;;;;;;;0.41;100.00;100717.30;641477;224;24853;-75
2021/01/09 05:04:57;;;;;;;19.47;11.47;;;;;;;0.33;100.00;100717.28;640419;220;24811;-75
2021/01/09 05:07:25;;;;;;;18.87;11.57;;;;;;;0.31;100.00;100721.19;626930;229;24815;-75
2021/01/09 05:10:00;;;;;;;18.67;11.00;;;;;;;0.39;100.00;100718.27;627154;228;24815;-76
2021/01/09 05:12:32;;;;;;;19.60;11.07;;;;;;;0.29;100.00;100719.15;639557;225;24858;-76
2021/01/09 05:15:00;;;;;;;21.23;12.23;;;;;;;0.19;100.00;100711.04;635513;225;24847;-74
2021/01/09 05:17:28;;;;;;;16.70;11.27;;;;;;;0.10;100.00;100720.83;638635;224;24821;-75
2021/01/09 05:19:56;;;;;;;19.90;12.30;;;;;;;-0.18;100.00;100716.88;624007;229;24933;-76
2021/01/09 05:22:24;;;;;;;19.93;12.70;;;;;;;-0.11;100.00;100726.42;625564;229;24874;-74
2021/01/09 05:24:52;;;;;;;19.70;11.90;;;;;;;-0.12;100.00;100734.54;627195;226;24843;-75
2021/01/09 05:27:20;;;;;;;20.00;11.30;;;;;;;-0.12;100.00;100730.70;622749;229;24897;-76
2021/01/09 05:29:52;;;;;;;22.47;12.17;;;;;;;-0.23;100.00;100732.04;624069;229;24843;-76
2021/01/09 05:32:20;;;;;;;18.23;11.10;;;;;;;-0.20;100.00;100729.34;627286;228;24842;-75
2021/01/09 05:34:48;;;;;;;22.43;11.53;;;;;;;0.03;100.00;100727.11;641434;221;27983;-74
2021/01/09 05:37:19;;;;;;;24.63;16.12;;;;;;;0.44;100.00;100729.16;619778;225;32794;-76
2021/01/09 05:39:51;;;;;;;23.80;13.67;;;;;;;0.31;100.00;100731.42;637330;224;23671;-75
2021/01/09 05:42:22;;;;;;;22.90;12.63;;;;;;;0.30;100.00;100729.76;626311;226;24848;-74
2021/01/09 05:44:51;;;;;;;23.75;15.50;;;;;;;0.59;100.00;100722.06;631849;221;32542;-75
2021/01/09 05:47:20;;;;;;;22.17;13.30;;;;;;;0.45;100.00;100718.02;627248;227;23709;-75
2021/01/09 05:49:48;;;;;;;18.80;11.80;;;;;;;0.40;100.00;100725.88;640390;224;24855;-75
2021/01/09 05:52:16;;;;;;;17.43;10.10;;;;;;;0.39;100.00;100721.66;625862;229;24818;-75
2021/01/09 05:54:45;;;;;;;19.20;11.10;;;;;;;0.48;100.00;100726.38;637308;221;24876;-75
2021/01/09 05:57:16;;;;;;;15.13;9.57;;;;;;;0.46;100.00;100724.34;625292;227;24806;-74
2021/01/09 05:59:45;;;;;;;17.10;11.20;;;;;;;0.45;100.00;100726.52;628522;227;24834;-76
2021/01/09 06:02:13;;;;;;;18.40;10.10;;;;;;;0.40;100.00;100731.44;641741;223;26973;-75
2021/01/09 06:04:43;;;;;;;15.33;9.83;;;;;;;0.41;100.00;100731.82;623218;227;24949;-76
2021/01/09 06:07:14;;;;;;;18.10;12.18;;;;;;;0.44;100.00;100731.27;636183;223;33038;-75
2021/01/09 06:09:45;;;;;;;17.57;12.00;;;;;;;0.45;99.52;100734.20;619213;230;43672;-77
2021/01/09 06:12:13;;;;;;;15.73;10.70;;;;;;;0.36;99.37;100740.98;627070;228;24876;-77
2021/01/09 06:14:42;;;;;;;19.80;10.17;;;;;;;0.34;99.43;100735.56;624715;225;24880;-78
2021/01/09 06:17:11;;;;;;;15.90;9.20;;;;;;;0.32;99.37;100742.48;628181;228;24851;-76
2021/01/09 06:19:39;;;;;;;18.90;12.13;;;;;;;0.45;99.15;100736.75;609087;230;33051;-78
2021/01/09 06:22:07;;;;;;;16.53;10.43;;;;;;;0.29;98.99;100737.05;628864;227;23711;-78
2021/01/09 06:24:35;;;;;;;16.42;11.63;;;;;;;0.48;99.31;100741.73;620204;225;32798;-77
2021/01/09 06:27:03;;;;;;;16.63;10.70;;;;;;;0.38;99.45;100748.14;640928;224;23688;-77
2021/01/09 06:29:31;;;;;;;18.42;11.95;;;;;;;0.65;98.33;100746.09;634800;224;32769;-76
2021/01/09 06:31:59;;;;;;;17.20;11.80;;;;;;;0.47;98.75;100749.03;639464;224;25837;-77
2021/01/09 06:34:27;;;;;;;13.70;9.50;;;;;;;0.44;98.57;100753.01;626644;224;24857;-77
2021/01/09 06:36:56;;;;;;;17.55;12.00;;;;;;;0.77;97.47;100745.99;623584;225;33008;-75
2021/01/09 06:39:25;;;;;;;16.90;11.20;;;;;;;0.58;97.83;100752.40;626640;225;23679;-76
2021/01/09 06:41:53;;;;;;;16.90;10.53;;;;;;;0.48;98.28;100754.52;625757;225;24840;-77
2021/01/09 06:44:22;;;;;;;17.30;10.30;;;;;;;0.49;98.47;100757.91;631804;226;24855;-77
2021/01/09 06:46:50;;;;;;;15.40;9.50;;;;;;;0.30;98.16;100760.45;628504;226;26155;-75
2021/01/09 06:49:18;;;;;;;17.30;10.60;;;;;;;0.23;98.61;100757.76;630892;225;24843;-77
2021/01/09 06:51:52;;;;;;;17.17;10.03;;;;;;;0.24;98.48;100764.53;630140;224;24811;-77
2021/01/09 06:54:24;;;;;;;14.50;9.27;;;;;;;0.17;97.92;100756.31;624285;225;24887;-77
2021/01/09 06:56:53;;;;;;;14.87;9.97;;;;;;;0.20;97.71;100763.84;640139;224;24820;-74
2021/01/09 06:59:30;;;;;;;18.65;12.63;;;;;;;0.73;96.87;100756.00;630654;224;33058;-76
2021/01/09 07:02:11;;;;;;;16.20;11.50;;;;;;;0.37;96.77;100762.28;624211;229;23684;-75
2021/01/09 07:04:57;;;;;;;16.93;10.93;;;;;;;0.25;96.78;100764.91;635915;221;24863;-77
2021/01/09 07:07:30;;;;;;;19.17;11.33;;;;;;;0.07;97.29;100774.20;632999;225;24931;-77
2021/01/09 07:10:00;;;;;;;19.60;13.03;;;;;;;0.63;96.34;100768.37;624189;226;32972;-77
2021/01/09 07:12:29;;;;;;;20.32;14.63;;;;;;;0.80;94.74;100762.03;628509;225;32942;-76
2021/01/09 07:15:02;;;;;;;23.67;16.35;;;;;;;0.97;94.24;100759.98;632429;221;33112;-77
2021/01/09 07:17:30;;;;;;;20.83;12.60;;;;;;;0.28;95.48;100775.01;634709;225;23759;-76
2021/01/09 07:19:58;;;;;;;17.50;11.43;;;;;;;0.19;96.56;100784.38;627633;225;24837;-76
2021/01/09 07:22:26;;;;;;;19.53;12.33;;;;;;;0.12;96.84;100788.90;623704;230;24877;-75
2021/01/09 07:24:54;;;;;;;15.83;11.53;;;;;;;0.08;96.98;100787.83;637604;221;24770;-76
2021/01/09 07:27:22;;;;;;;18.90;11.07;;;;;;;-0.02;97.10;100788.20;627160;227;24884;-75
2021/01/09 07:29:55;;;;;;;20.67;13.47;;;;;;;-0.11;97.31;100786.04;625983;229;24802;-76
2021/01/09 07:32:37;;;;;;;22.00;13.97;;;;;;;-0.22;98.13;100786.09;631539;225;24925;-76
2021/01/09 07:35:07;;;;;;;22.05;15.00;;;;;;;0.25;97.08;100789.22;620006;225;32729;-77
2021/01/09 07:37:38;;;;;;;20.63;14.50;;;;;;;0.03;97.83;100791.86;625216;228;23680;-76
2021/01/09 07:40:12;;;;;;;21.43;13.43;;;;;;;-0.03;98.02;100795.48;625599;228;24815;-76
2021/01/09 07:42:40;;;;;;;18.90;12.83;;;;;;;-0.16;98.75;100793.05;640874;224;24821;-76
2021/01/09 07:45:09;;;;;;;21.00;14.40;;;;;;;0.42;97.81;100793.60;620518;225;32797;-75
2021/01/09 07:47:38;;;;;;;21.13;13.23;;;;;;;0.07;98.53;100786.99;620753;229;23709;-75
2021/01/09 07:50:08;;;;;;;17.63;11.47;;;;;;;0.10;98.90;100801.37;626229;228;24810;-75
2021/01/09 07:52:36;;;;;;;18.73;11.53;;;;;;;0.04;99.70;100794.80;621192;228;24889;-76
2021/01/09 07:55:04;;;;;;;21.07;11.60;;;;;;;0.24;99.54;100811.85;623320;226;25076;-76
2021/01/09 07:57:32;;;;;;;16.43;10.20;;;;;;;0.27;99.42;100804.05;638294;223;24905;-76
2021/01/09 08:00:04;;;;;;;17.43;11.10;;;;;;;0.40;98.94;100811.58;639838;224;26053;-75
2021/01/09 08:02:32;;;;;;;16.73;10.80;;;;;;;0.44;99.19;100808.02;639348;224;24794;-76
2021/01/09 08:05:04;;;;;;;16.40;10.40;;;;;;;0.41;99.94;100813.69;639383;221;24798;-75
2021/01/09 08:07:31;;;;;;;17.53;10.87;;;;;;;0.39;100.00;100819.32;639109;224;25020;-76
2021/01/09 08:09:59;;;;;;;19.33;11.10;;;;;;;0.42;100.00;100818.73;638752;224;24832;-76
2021/01/09 08:12:28;;;;;;;17.50;10.97;;;;;;;0.48;99.95;100823.61;639808;224;24824;-75
2021/01/09 08:14:58;;;;;;;15.43;10.37;;;;;;;0.52;99.82;100821.29;640829;220;24784;-76
2021/01/09 08:17:26;;;;;;;18.43;11.60;;;;;;;0.54;100.00;100832.28;639952;224;24795;-76
2021/01/09 08:19:54;;;;;;;20.07;10.83;;;;;;;0.67;100.00;100833.03;640504;224;25069;-77
2021/01/09 08:22:22;;;;;;;16.53;10.40;;;;;;;0.76;100.00;100830.09;627473;224;24854;-76
2021/01/09 08:24:50;;;;;;;18.20;11.17;;;;;;;0.81;100.00;100831.98;637713;221;24984;-76
2021/01/09 08:27:20;;;;;;;17.53;10.80;;;;;;;0.89;99.75;100833.31;629077;227;24852;-76
2021/01/09 08:29:48;;;;;;;19.10;11.30;;;;;;;0.88;99.64;100843.17;639792;224;24829;-75
2021/01/09 08:32:16;;;;;;;17.60;11.10;;;;;;;1.07;99.42;100840.61;626827;229;24821;-75
2021/01/09 08:34:48;;;;;;;16.07;10.60;;;;;;;1.49;97.40;100835.25;627118;224;25142;-76
2021/01/09 08:37:16;;;;;;;19.60;11.13;;;;;;;1.53;96.45;100838.94;625529;227;27031;-76
2021/01/09 08:39:44;;;;;;;19.53;11.97;;;;;;;1.47;96.35;100836.23;625107;229;24856;-75
2021/01/09 08:42:17;;;;;;;19.42;13.00;;;;;;;1.78;95.04;100840.27;633274;224;33059;-75
2021/01/09 08:44:47;;;;;;;16.27;11.57;;;;;;;1.64;95.51;100837.53;625677;225;23672;-76
2021/01/09 08:47:16;;;;;;;16.73;11.33;;;;;;;1.72;95.46;100835.91;624690;229;24821;-74
2021/01/09 08:49:44;;;;;;;16.70;10.40;;;;;;;1.75;95.37;100842.98;626819;228;24804;-76
2021/01/09 08:52:12;;;;;;;19.33;12.50;;;;;;;1.98;95.35;100848.75;640920;223;24792;-74
2021/01/09 08:54:40;;;;;;;21.97;13.33;;;;;;;2.05;94.48;100844.52;638953;221;24785;-75
2021/01/09 08:57:08;;;;;;;20.47;12.33;;;;;;;1.99;94.29;100847.84;639529;224;24786;-75
2021/01/09 08:59:36;;;;;;;20.80;12.83;;;;;;;2.06;94.31;100846.17;620749;229;26963;-75
2021/01/09 09:02:04;;;;;;;18.67;11.60;;;;;;;2.00;94.28;100854.64;625954;228;24855;-75
2021/01/09 09:04:32;;;;;;;20.83;12.87;;;;;;;1.94;94.79;100856.20;639637;220;24786;-76
2021/01/09 09:07:00;;;;;;;18.77;12.07;;;;;;;1.96;94.86;100856.95;637803;224;32250;-75
2021/01/09 09:09:29;;;;;;;20.80;12.60;;;;;;;2.03;94.84;100859.61;639712;224;25103;-76
2021/01/09 09:11:57;;;;;;;20.03;12.33;;;;;;;2.01;95.61;100863.98;638432;224;24806;-72
2021/01/09 09:14:25;;;;;;;18.47;11.40;;;;;;;2.13;95.81;100864.67;623523;226;24811;-74
2021/01/09 09:16:58;;;;;;;18.93;12.57;;;;;;;2.14;95.27;100867.62;625887;228;24823;-73
2021/01/09 09:19:26;;;;;;;18.20;11.20;;;;;;;2.38;95.61;100867.66;623498;229;24880;-74
2021/01/09 09:21:57;;;;;;;20.27;11.57;;;;;;;2.44;94.88;100868.28;633299;225;24880;-74
2021/01/09 09:24:38;;;;;;;19.90;11.80;;;;;;;2.40;94.73;100861.20;624114;225;24801;-72
2021/01/09 09:27:21;;;;;;;20.10;13.03;;;;;;;2.42;94.52;100872.67;628371;226;24848;-74
2021/01/09 09:29:49;;;;;;;21.23;12.53;;;;;;;2.07;94.24;100866.24;628224;225;24836;-73
2021/01/09 09:32:24;;;;;;;20.72;14.15;;;;;;;2.23;94.08;100878.69;619411;229;32783;-73
2021/01/09 09:34:52;;;;;;;22.13;12.67;;;;;;;2.25;95.39;100884.61;625799;224;23945;-73
2021/01/09 09:37:20;;;;;;;17.97;11.60;;;;;;;2.25;94.61;100882.04;628400;226;24832;-73
2021/01/09 09:39:47;;;;;;;21.27;12.30;;;;;;;2.22;95.13;100880.88;640848;223;24840;-73
2021/01/09 09:42:15;;;;;;;20.90;12.90;;;;;;;2.28;95.09;100887.47;625769;229;24888;-71
2021/01/09 09:44:43;;;;;;;23.37;12.90;;;;;;;2.26;94.99;100888.83;628090;226;24832;-72
2021/01/09 09:47:11;;;;;;;19.93;13.07;;;;;;;2.44;95.09;100893.50;626017;225;24862;-72
2021/01/09 09:49:39;;;;;;;19.90;12.40;;;;;;;2.42;95.02;100894.48;629273;225;24849;-72
2021/01/09 09:52:15;;;;;;;20.70;12.00;;;;;;;2.30;94.56;100898.48;638351;223;24780;-71
2021/01/09 09:54:43;;;;;;;26.00;13.30;;;;;;;2.38;94.99;100899.75;625279;225;25221;-74
2021/01/09 09:57:20;;;;;;;20.50;12.13;;;;;;;2.23;94.53;100899.67;627276;228;24854;-74
2021/01/09 09:59:48;;;;;;;19.60;11.57;;;;;;;2.27;94.81;100905.89;628497;227;24866;-73
2021/01/09 10:02:16;;;;;;;24.90;13.73;;;;;;;2.19;94.51;100895.15;626820;228;24864;-70
2021/01/09 10:04:45;;;;;;;21.13;12.60;;;;;;;2.17;94.50;100900.81;624924;225;24826;-73
2021/01/09 10:07:21;;;;;;;23.13;12.43;;;;;;;2.23;94.79;100898.39;625735;228;24813;-75
2021/01/09 10:09:49;;;;;;;19.20;11.97;;;;;;;2.29;94.34;100895.54;641386;224;24779;-73
2021/01/09 10:12:17;;;;;;;20.13;13.30;;;;;;;2.37;94.55;100896.80;626494;223;24900;-72
2021/01/09 10:14:45;;;;;;;19.57;11.57;;;;;;;2.36;94.15;100888.73;639105;221;24804;-74
2021/01/09 10:17:16;;;;;;;19.87;12.07;;;;;;;2.33;93.99;100887.61;637364;224;24812;-74
2021/01/09 10:19:44;;;;;;;21.30;12.73;;;;;;;2.52;93.50;100890.53;639652;224;25021;-74
2021/01/09 10:22:12;;;;;;;21.33;12.30;;;;;;;2.44;93.50;100896.52;637585;224;24808;-74
2021/01/09 10:24:40;;;;;;;23.53;13.30;;;;;;;2.43;94.07;100892.30;637084;221;24816;-74
2021/01/09 10:27:08;;;;;;;22.50;13.00;;;;;;;2.53;93.67;100899.89;638559;224;24796;-72
2021/01/09 10:29:36;;;;;;;22.83;12.10;;;;;;;2.27;92.68;100895.63;638975;224;24811;-73
2021/01/09 10:32:04;;;;;;;21.23;12.90;;;;;;;2.21;93.37;100898.47;626116;229;25054;-73
2021/01/09 10:34:33;;;;;;;20.63;11.87;;;;;;;2.19;92.94;100902.85;624310;225;24865;-74
2021/01/09 10:37:00;;;;;;;17.87;11.53;;;;;;;2.21;93.36;100901.03;637030;224;24872;-72
2021/01/09 10:39:28;;;;;;;20.00;12.03;;;;;;;2.31;93.51;100895.84;637530;224;24833;-74
2021/01/09 10:41:56;;;;;;;20.87;12.97;;;;;;;2.55;93.00;100900.67;629744;225;24873;-73
2021/01/09 10:44:24;;;;;;;19.40;11.83;;;;;;;2.50;92.06;100894.91;638843;221;24819;-72
2021/01/09 10:46:52;;;;;;;20.37;13.58;;;;;;;2.75;90.96;100887.64;632566;223;43509;-74
2021/01/09 10:49:20;;;;;;;19.10;12.33;;;;;;;2.91;91.20;100885.10;638882;224;24853;-73
2021/01/09 10:51:48;;;;;;;22.40;13.20;;;;;;;3.22;90.58;100883.03;639189;224;25198;-73
2021/01/09 10:54:16;;;;;;;19.42;13.28;;;;;;;3.52;89.18;100871.58;620557;225;32781;-72
2021/01/09 10:56:46;;;;;;;19.90;13.10;;;;;;;3.33;87.90;100860.62;624304;229;23726;-71
2021/01/09 10:59:14;;;;;;;18.67;12.00;;;;;;;3.41;88.34;100860.59;642139;223;24844;-74
2021/01/09 11:01:42;;;;;;;20.05;13.55;;;;;;;3.98;88.25;100860.01;635270;224;32746;-72
2021/01/09 11:04:10;;;;;;;21.37;12.90;;;;;;;3.81;86.21;100851.50;625988;225;30041;-70
2021/01/09 11:06:38;;;;;;;19.80;13.50;;;;;;;3.90;85.34;100837.73;633042;224;43411;-73
2021/01/09 11:09:06;;;;;;;16.50;10.90;;;;;;;3.88;85.80;100844.25;625736;229;23653;-72
2021/01/09 11:11:34;;;;;;;17.47;11.00;;;;;;;4.02;86.16;100846.87;625354;229;25845;-74
2021/01/09 11:14:02;;;;;;;18.53;11.63;;;;;;;4.08;85.78;100849.11;640674;221;28006;-73
2021/01/09 11:16:30;;;;;;;15.90;11.13;;;;;;;4.19;85.64;100840.75;640026;224;24824;-73
2021/01/09 11:18:58;;;;;;;15.67;10.33;;;;;;;4.16;83.77;100835.78;631860;225;26021;-74
2021/01/09 11:21:26;;;;;;;17.10;10.63;;;;;;;4.29;83.69;100844.91;624318;229;24799;-73